sensor_id;sensor_type;location;lat;lon;timestamp;P1;durP1;ratioP1;P2;durP2;ratioP2
47896;SDS011;39629;51.400;5.494;2024-03-23T00:54:21;4.55;;;1.83;;
47896;SDS011;39629;51.400;5.494;2024-03-23T00:59:23;8.77;;;1.55;;
47896;SDS011;39629;51.400;5.494;2024-03-23T01:04:27;6.75;;;1.67;;
47896;SDS011;39629;51.400;5.494;2024-03-23T01:09:30;5.32;;;1.92;;
47896;SDS011;39629;51.400;5.494;2024-03-23T01:14:32;8.77;;;1.70;;
47896;SDS011;39629;51.400;5.494;2024-03-23T01:19:33;5.60;;;1.92;;
47896;SDS011;39629;51.400;5.494;2024-03-23T01:24:36;8.57;;;2.08;;
47896;SDS011;39629;51.400;5.494;2024-03-23T01:29:38;7.53;;;2.13;;
47896;SDS011;39629;51.400;5.494;2024-03-23T01:34:40;8.63;;;2.10;;
47896;SDS011;39629;51.400;5.494;2024-03-23T01:39:43;6.13;;;1.65;;
47896;SDS011;39629;51.400;5.494;2024-03-23T01:44:44;5.15;;;1.95;;
47896;SDS011;39629;51.400;5.494;2024-03-23T01:49:46;5.30;;;1.77;;
47896;SDS011;39629;51.400;5.494;2024-03-23T01:54:49;11.50;;;2.03;;
47896;SDS011;39629;51.400;5.494;2024-03-23T01:59:51;5.95;;;2.00;;
47896;SDS011;39629;51.400;5.494;2024-03-23T02:05:00;7.38;;;1.67;;
47896;SDS011;39629;51.400;5.494;2024-03-23T02:10:03;7.65;;;2.03;;
47896;SDS011;39629;51.400;5.494;2024-03-23T02:15:06;7.28;;;1.88;;
47896;SDS011;39629;51.400;5.494;2024-03-23T02:20:10;5.10;;;2.00;;
47896;SDS011;39629;51.400;5.494;2024-03-23T02:30:16;9.43;;;2.47;;
47896;SDS011;39629;51.400;5.494;2024-03-23T02:35:17;6.18;;;2.20;;
47896;SDS011;39629;51.400;5.494;2024-03-23T02:40:20;7.50;;;2.10;;
47896;SDS011;39629;51.400;5.494;2024-03-23T02:45:23;8.90;;;1.93;;
47896;SDS011;39629;51.400;5.494;2024-03-23T02:50:24;5.18;;;1.83;;
47896;SDS011;39629;51.400;5.494;2024-03-23T02:55:27;7.85;;;2.10;;
47896;SDS011;39629;51.400;5.494;2024-03-23T03:00:29;11.05;;;2.13;;
47896;SDS011;39629;51.400;5.494;2024-03-23T03:05:31;7.80;;;1.80;;
47896;SDS011;39629;51.400;5.494;2024-03-23T03:10:34;3.75;;;1.70;;
47896;SDS011;39629;51.400;5.494;2024-03-23T03:15:36;6.73;;;1.57;;
47896;SDS011;39629;51.400;5.494;2024-03-23T03:20:38;6.65;;;1.83;;
47896;SDS011;39629;51.400;5.494;2024-03-23T03:25:42;6.43;;;1.70;;
47896;SDS011;39629;51.400;5.494;2024-03-23T03:30:43;8.25;;;1.70;;
47896;SDS011;39629;51.400;5.494;2024-03-23T03:35:46;5.97;;;1.70;;
47896;SDS011;39629;51.400;5.494;2024-03-23T03:40:49;5.00;;;2.00;;
47896;SDS011;39629;51.400;5.494;2024-03-23T03:45:51;5.57;;;1.80;;
47896;SDS011;39629;51.400;5.494;2024-03-23T03:50:53;6.97;;;1.92;;
47896;SDS011;39629;51.400;5.494;2024-03-23T03:55:56;4.38;;;1.73;;
47896;SDS011;39629;51.400;5.494;2024-03-23T04:01:02;5.78;;;2.00;;
47896;SDS011;39629;51.400;5.494;2024-03-23T04:06:04;6.15;;;1.73;;
47896;SDS011;39629;51.400;5.494;2024-03-23T04:11:07;10.25;;;1.77;;
47896;SDS011;39629;51.400;5.494;2024-03-23T04:16:08;6.85;;;1.70;;
47896;SDS011;39629;51.400;5.494;2024-03-23T04:21:10;4.13;;;1.52;;
47896;SDS011;39629;51.400;5.494;2024-03-23T04:26:13;6.40;;;1.85;;
47896;SDS011;39629;51.400;5.494;2024-03-23T04:31:16;6.70;;;2.22;;
47896;SDS011;39629;51.400;5.494;2024-03-23T04:36:18;6.25;;;2.20;;
47896;SDS011;39629;51.400;5.494;2024-03-23T04:41:21;6.53;;;2.40;;
47896;SDS011;39629;51.400;5.494;2024-03-23T04:46:22;8.93;;;2.58;;
47896;SDS011;39629;51.400;5.494;2024-03-23T04:51:24;6.63;;;3.10;;
47896;SDS011;39629;51.400;5.494;2024-03-23T04:56:27;6.82;;;3.00;;
47896;SDS011;39629;51.400;5.494;2024-03-23T05:01:29;10.75;;;3.33;;
47896;SDS011;39629;51.400;5.494;2024-03-23T05:06:31;12.55;;;3.33;;
47896;SDS011;39629;51.400;5.494;2024-03-23T05:11:34;10.48;;;3.72;;
47896;SDS011;39629;51.400;5.494;2024-03-23T05:16:36;9.13;;;3.45;;
47896;SDS011;39629;51.400;5.494;2024-03-23T05:21:37;10.02;;;3.35;;
47896;SDS011;39629;51.400;5.494;2024-03-23T05:26:41;12.40;;;3.05;;
47896;SDS011;39629;51.400;5.494;2024-03-23T05:31:42;9.70;;;3.22;;
47896;SDS011;39629;51.400;5.494;2024-03-23T05:36:44;10.43;;;3.38;;
47896;SDS011;39629;51.400;5.494;2024-03-23T05:41:47;9.57;;;3.40;;
47896;SDS011;39629;51.400;5.494;2024-03-23T05:46:49;10.00;;;3.20;;
47896;SDS011;39629;51.400;5.494;2024-03-23T05:51:50;6.68;;;2.85;;
47896;SDS011;39629;51.400;5.494;2024-03-23T05:56:55;12.23;;;3.33;;
47896;SDS011;39629;51.400;5.494;2024-03-23T06:01:57;8.32;;;3.13;;
47896;SDS011;39629;51.400;5.494;2024-03-23T06:06:59;12.20;;;3.35;;
47896;SDS011;39629;51.400;5.494;2024-03-23T06:12:02;10.02;;;2.88;;
47896;SDS011;39629;51.400;5.494;2024-03-23T06:17:04;9.17;;;2.70;;
47896;SDS011;39629;51.400;5.494;2024-03-23T06:22:06;9.07;;;3.17;;
47896;SDS011;39629;51.400;5.494;2024-03-23T06:27:09;10.27;;;3.65;;
47896;SDS011;39629;51.400;5.494;2024-03-23T06:32:10;14.55;;;3.85;;
47896;SDS011;39629;51.400;5.494;2024-03-23T06:37:12;12.27;;;3.65;;
47896;SDS011;39629;51.400;5.494;2024-03-23T06:42:16;13.68;;;3.50;;
47896;SDS011;39629;51.400;5.494;2024-03-23T06:47:18;14.15;;;3.67;;
47896;SDS011;39629;51.400;5.494;2024-03-23T06:52:20;15.23;;;4.85;;
47896;SDS011;39629;51.400;5.494;2024-03-23T06:57:23;10.88;;;3.53;;
47896;SDS011;39629;51.400;5.494;2024-03-23T07:02:24;9.93;;;3.22;;
47896;SDS011;39629;51.400;5.494;2024-03-23T07:07:26;10.02;;;3.40;;
47896;SDS011;39629;51.400;5.494;2024-03-23T07:12:31;8.65;;;2.40;;
47896;SDS011;39629;51.400;5.494;2024-03-23T07:17:33;9.80;;;3.38;;
47896;SDS011;39629;51.400;5.494;2024-03-23T07:22:35;9.85;;;3.45;;
47896;SDS011;39629;51.400;5.494;2024-03-23T07:27:38;10.43;;;3.53;;
47896;SDS011;39629;51.400;5.494;2024-03-23T07:32:39;15.70;;;3.28;;
47896;SDS011;39629;51.400;5.494;2024-03-23T07:37:41;13.55;;;3.33;;
47896;SDS011;39629;51.400;5.494;2024-03-23T07:42:45;8.63;;;2.50;;
47896;SDS011;39629;51.400;5.494;2024-03-23T07:47:46;12.77;;;2.83;;
47896;SDS011;39629;51.400;5.494;2024-03-23T07:52:48;6.88;;;2.10;;
47896;SDS011;39629;51.400;5.494;2024-03-23T07:57:52;8.90;;;1.70;;
47896;SDS011;39629;51.400;5.494;2024-03-23T08:02:53;9.70;;;2.22;;
47896;SDS011;39629;51.400;5.494;2024-03-23T08:07:55;12.27;;;2.53;;
47896;SDS011;39629;51.400;5.494;2024-03-23T08:12:58;8.63;;;2.03;;
47896;SDS011;39629;51.400;5.494;2024-03-23T08:18:00;11.00;;;2.03;;
47896;SDS011;39629;51.400;5.494;2024-03-23T08:23:02;3.72;;;1.52;;
47896;SDS011;39629;51.400;5.494;2024-03-23T08:28:05;5.90;;;1.40;;
47896;SDS011;39629;51.400;5.494;2024-03-23T08:33:07;9.07;;;1.77;;
47896;SDS011;39629;51.400;5.494;2024-03-23T08:38:08;8.90;;;1.83;;
47896;SDS011;39629;51.400;5.494;2024-03-23T08:43:11;6.50;;;1.58;;
47896;SDS011;39629;51.400;5.494;2024-03-23T08:48:13;8.60;;;1.40;;
47896;SDS011;39629;51.400;5.494;2024-03-23T08:53:15;8.50;;;1.40;;
47896;SDS011;39629;51.400;5.494;2024-03-23T08:58:18;9.00;;;1.48;;
47896;SDS011;39629;51.400;5.494;2024-03-23T09:03:20;4.07;;;1.03;;
47896;SDS011;39629;51.400;5.494;2024-03-23T09:08:22;6.13;;;1.42;;
47896;SDS011;39629;51.400;5.494;2024-03-23T09:13:25;5.53;;;1.50;;
47896;SDS011;39629;51.400;5.494;2024-03-23T09:18:26;4.03;;;1.30;;
47896;SDS011;39629;51.400;5.494;2024-03-23T09:23:28;2.85;;;0.50;;
47896;SDS011;39629;51.400;5.494;2024-03-23T09:28:31;2.20;;;0.63;;
47896;SDS011;39629;51.400;5.494;2024-03-23T09:33:33;2.53;;;0.70;;
47896;SDS011;39629;51.400;5.494;2024-03-23T09:38:35;3.08;;;0.55;;
47896;SDS011;39629;51.400;5.494;2024-03-23T09:43:39;2.92;;;0.90;;
47896;SDS011;39629;51.400;5.494;2024-03-23T09:48:41;6.00;;;0.93;;
47896;SDS011;39629;51.400;5.494;2024-03-23T09:53:46;6.72;;;1.27;;
47896;SDS011;39629;51.400;5.494;2024-03-23T09:58:49;6.38;;;1.88;;
47896;SDS011;39629;51.400;5.494;2024-03-23T10:03:51;3.90;;;1.20;;
47896;SDS011;39629;51.400;5.494;2024-03-23T10:08:53;4.93;;;1.30;;
47896;SDS011;39629;51.400;5.494;2024-03-23T10:13:56;5.68;;;0.90;;
47896;SDS011;39629;51.400;5.494;2024-03-23T10:18:58;3.70;;;1.38;;
47896;SDS011;39629;51.400;5.494;2024-03-23T10:24:01;5.10;;;1.00;;
47896;SDS011;39629;51.400;5.494;2024-03-23T10:29:10;2.90;;;0.63;;
47896;SDS011;39629;51.400;5.494;2024-03-23T10:34:13;2.63;;;0.80;;
47896;SDS011;39629;51.400;5.494;2024-03-23T10:39:14;4.50;;;0.73;;
47896;SDS011;39629;51.400;5.494;2024-03-23T10:44:19;4.28;;;1.25;;
47896;SDS011;39629;51.400;5.494;2024-03-23T10:49:21;3.90;;;0.65;;
47896;SDS011;39629;51.400;5.494;2024-03-23T10:54:24;4.07;;;0.90;;
47896;SDS011;39629;51.400;5.494;2024-03-23T10:59:27;5.03;;;0.93;;
47896;SDS011;39629;51.400;5.494;2024-03-23T11:04:34;10.43;;;1.20;;
47896;SDS011;39629;51.400;5.494;2024-03-23T11:09:39;3.92;;;1.08;;
47896;SDS011;39629;51.400;5.494;2024-03-23T11:14:42;7.82;;;1.30;;
47896;SDS011;39629;51.400;5.494;2024-03-23T11:19:44;7.47;;;1.33;;
47896;SDS011;39629;51.400;5.494;2024-03-23T11:24:54;1.95;;;0.50;;
47896;SDS011;39629;51.400;5.494;2024-03-23T11:30:10;4.47;;;0.60;;
47896;SDS011;39629;51.400;5.494;2024-03-23T11:35:26;2.30;;;0.60;;
47896;SDS011;39629;51.400;5.494;2024-03-23T11:40:29;5.53;;;0.80;;
47896;SDS011;39629;51.400;5.494;2024-03-23T11:45:35;5.65;;;0.90;;
47896;SDS011;39629;51.400;5.494;2024-03-23T11:50:40;2.97;;;0.75;;
47896;SDS011;39629;51.400;5.494;2024-03-23T11:55:43;1.63;;;0.60;;
47896;SDS011;39629;51.400;5.494;2024-03-23T12:00:51;1.92;;;0.68;;
47896;SDS011;39629;51.400;5.494;2024-03-23T12:05:54;1.52;;;0.55;;
47896;SDS011;39629;51.400;5.494;2024-03-23T12:11:04;1.98;;;0.50;;
47896;SDS011;39629;51.400;5.494;2024-03-23T12:16:12;4.18;;;1.00;;
47896;SDS011;39629;51.400;5.494;2024-03-23T12:21:14;2.78;;;0.75;;
47896;SDS011;39629;51.400;5.494;2024-03-23T12:26:16;2.63;;;0.68;;
47896;SDS011;39629;51.400;5.494;2024-03-23T12:31:19;2.30;;;0.68;;
47896;SDS011;39629;51.400;5.494;2024-03-23T12:36:21;3.08;;;0.60;;
47896;SDS011;39629;51.400;5.494;2024-03-23T12:41:23;2.38;;;0.80;;
47896;SDS011;39629;51.400;5.494;2024-03-23T12:46:26;4.43;;;0.70;;
47896;SDS011;39629;51.400;5.494;2024-03-23T12:51:28;1.98;;;0.38;;
47896;SDS011;39629;51.400;5.494;2024-03-23T12:56:29;2.95;;;0.20;;
47896;SDS011;39629;51.400;5.494;2024-03-23T13:01:33;0.60;;;0.20;;
47896;SDS011;39629;51.400;5.494;2024-03-23T13:06:34;1.25;;;0.30;;
47896;SDS011;39629;51.400;5.494;2024-03-23T13:11:36;1.15;;;0.25;;
47896;SDS011;39629;51.400;5.494;2024-03-23T13:16:39;1.70;;;0.43;;
47896;SDS011;39629;51.400;5.494;2024-03-23T13:21:41;2.70;;;0.43;;
47896;SDS011;39629;51.400;5.494;2024-03-23T13:26:42;2.67;;;0.63;;
47896;SDS011;39629;51.400;5.494;2024-03-23T13:31:45;4.20;;;0.80;;
47896;SDS011;39629;51.400;5.494;2024-03-23T13:36:47;6.13;;;1.23;;
47896;SDS011;39629;51.400;5.494;2024-03-23T13:41:49;4.07;;;0.80;;
47896;SDS011;39629;51.400;5.494;2024-03-23T13:46:52;6.88;;;0.63;;
47896;SDS011;39629;51.400;5.494;2024-03-23T13:51:54;4.70;;;0.85;;
47896;SDS011;39629;51.400;5.494;2024-03-23T13:56:58;4.78;;;0.70;;
47896;SDS011;39629;51.400;5.494;2024-03-23T14:02:01;5.35;;;0.82;;
47896;SDS011;39629;51.400;5.494;2024-03-23T14:07:03;6.70;;;1.10;;
47896;SDS011;39629;51.400;5.494;2024-03-23T14:12:04;3.72;;;0.80;;
47896;SDS011;39629;51.400;5.494;2024-03-23T14:22:14;5.72;;;1.02;;
47896;SDS011;39629;51.400;5.494;2024-03-23T14:27:18;3.27;;;0.70;;
47896;SDS011;39629;51.400;5.494;2024-03-23T14:32:21;5.07;;;0.68;;
47896;SDS011;39629;51.400;5.494;2024-03-23T14:37:23;6.43;;;1.38;;
47896;SDS011;39629;51.400;5.494;2024-03-23T14:42:24;5.88;;;0.90;;
47896;SDS011;39629;51.400;5.494;2024-03-23T14:47:27;3.53;;;0.80;;
47896;SDS011;39629;51.400;5.494;2024-03-23T14:52:29;3.85;;;1.00;;
47896;SDS011;39629;51.400;5.494;2024-03-23T14:57:30;4.75;;;1.10;;
47896;SDS011;39629;51.400;5.494;2024-03-23T15:02:34;6.93;;;0.90;;
47896;SDS011;39629;51.400;5.494;2024-03-23T15:07:36;3.17;;;0.82;;
47896;SDS011;39629;51.400;5.494;2024-03-23T15:12:38;4.47;;;0.95;;
47896;SDS011;39629;51.400;5.494;2024-03-23T15:17:41;5.38;;;0.95;;
47896;SDS011;39629;51.400;5.494;2024-03-23T15:22:44;2.20;;;0.90;;
47896;SDS011;39629;51.400;5.494;2024-03-23T15:27:46;3.38;;;0.80;;
47896;SDS011;39629;51.400;5.494;2024-03-23T15:32:49;3.15;;;0.50;;
47896;SDS011;39629;51.400;5.494;2024-03-23T15:37:51;1.90;;;0.50;;
47896;SDS011;39629;51.400;5.494;2024-03-23T15:42:52;2.15;;;0.57;;
47896;SDS011;39629;51.400;5.494;2024-03-23T15:47:55;2.45;;;0.65;;
47896;SDS011;39629;51.400;5.494;2024-03-23T15:52:57;2.72;;;0.65;;
47896;SDS011;39629;51.400;5.494;2024-03-23T15:57:59;2.33;;;0.40;;
47896;SDS011;39629;51.400;5.494;2024-03-23T16:03:02;1.08;;;0.40;;
47896;SDS011;39629;51.400;5.494;2024-03-23T16:08:04;2.08;;;0.30;;
47896;SDS011;39629;51.400;5.494;2024-03-23T16:13:06;1.48;;;0.40;;
47896;SDS011;39629;51.400;5.494;2024-03-23T16:18:09;1.92;;;0.40;;
47896;SDS011;39629;51.400;5.494;2024-03-23T16:23:10;0.93;;;0.40;;
47896;SDS011;39629;51.400;5.494;2024-03-23T16:28:12;2.08;;;0.32;;
47896;SDS011;39629;51.400;5.494;2024-03-23T16:33:15;1.50;;;0.45;;
47896;SDS011;39629;51.400;5.494;2024-03-23T16:38:17;2.20;;;0.32;;
47896;SDS011;39629;51.400;5.494;2024-03-23T16:43:18;1.65;;;0.30;;
47896;SDS011;39629;51.400;5.494;2024-03-23T16:48:22;1.13;;;0.45;;
47896;SDS011;39629;51.400;5.494;2024-03-23T16:53:24;3.50;;;0.60;;
47896;SDS011;39629;51.400;5.494;2024-03-23T16:58:26;2.28;;;0.40;;
47896;SDS011;39629;51.400;5.494;2024-03-23T17:03:31;1.10;;;0.50;;
47896;SDS011;39629;51.400;5.494;2024-03-23T17:08:33;3.13;;;0.65;;
47896;SDS011;39629;51.400;5.494;2024-03-23T17:13:35;4.45;;;0.80;;
47896;SDS011;39629;51.400;5.494;2024-03-23T17:18:38;4.07;;;1.27;;
47896;SDS011;39629;51.400;5.494;2024-03-23T17:23:40;1.77;;;0.90;;
47896;SDS011;39629;51.400;5.494;2024-03-23T17:28:42;4.80;;;1.23;;
47896;SDS011;39629;51.400;5.494;2024-03-23T17:33:45;3.90;;;1.35;;
47896;SDS011;39629;51.400;5.494;2024-03-23T17:38:46;4.53;;;2.10;;
47896;SDS011;39629;51.400;5.494;2024-03-23T17:43:48;4.97;;;1.02;;
47896;SDS011;39629;51.400;5.494;2024-03-23T17:48:51;5.75;;;1.50;;
47896;SDS011;39629;51.400;5.494;2024-03-23T17:53:53;3.77;;;1.10;;
47896;SDS011;39629;51.400;5.494;2024-03-23T17:58:55;5.75;;;1.40;;
47896;SDS011;39629;51.400;5.494;2024-03-23T18:03:58;2.78;;;1.25;;
47896;SDS011;39629;51.400;5.494;2024-03-23T18:09:00;3.08;;;1.30;;
47896;SDS011;39629;51.400;5.494;2024-03-23T18:14:02;4.30;;;1.55;;
47896;SDS011;39629;51.400;5.494;2024-03-23T18:19:05;7.38;;;2.33;;
47896;SDS011;39629;51.400;5.494;2024-03-23T18:24:06;4.50;;;1.30;;
47896;SDS011;39629;51.400;5.494;2024-03-23T18:29:08;3.95;;;1.20;;
47896;SDS011;39629;51.400;5.494;2024-03-23T18:34:12;4.55;;;1.50;;
47896;SDS011;39629;51.400;5.494;2024-03-23T18:39:13;4.03;;;1.60;;
47896;SDS011;39629;51.400;5.494;2024-03-23T18:44:15;3.17;;;1.40;;
47896;SDS011;39629;51.400;5.494;2024-03-23T18:49:18;4.20;;;1.35;;
47896;SDS011;39629;51.400;5.494;2024-03-23T18:54:20;3.80;;;1.30;;
47896;SDS011;39629;51.400;5.494;2024-03-23T18:59:22;7.38;;;3.22;;
47896;SDS011;39629;51.400;5.494;2024-03-23T19:04:25;14.27;;;7.10;;
47896;SDS011;39629;51.400;5.494;2024-03-23T19:09:26;5.10;;;2.83;;
47896;SDS011;39629;51.400;5.494;2024-03-23T19:14:28;5.90;;;2.22;;
47896;SDS011;39629;51.400;5.494;2024-03-23T19:19:33;5.85;;;2.50;;
47896;SDS011;39629;51.400;5.494;2024-03-23T19:24:34;6.93;;;3.10;;
47896;SDS011;39629;51.400;5.494;2024-03-23T19:29:36;7.15;;;3.13;;
47896;SDS011;39629;51.400;5.494;2024-03-23T19:34:39;5.55;;;2.25;;
47896;SDS011;39629;51.400;5.494;2024-03-23T19:39:41;5.80;;;2.20;;
47896;SDS011;39629;51.400;5.494;2024-03-23T19:44:42;5.70;;;2.20;;
47896;SDS011;39629;51.400;5.494;2024-03-23T19:49:45;6.15;;;2.28;;
47896;SDS011;39629;51.400;5.494;2024-03-23T19:54:47;5.28;;;1.92;;
47896;SDS011;39629;51.400;5.494;2024-03-23T19:59:48;4.95;;;2.08;;
47896;SDS011;39629;51.400;5.494;2024-03-23T20:04:51;7.00;;;1.63;;
47896;SDS011;39629;51.400;5.494;2024-03-23T20:09:53;5.35;;;1.77;;
47896;SDS011;39629;51.400;5.494;2024-03-23T20:14:55;4.65;;;1.63;;
47896;SDS011;39629;51.400;5.494;2024-03-23T20:19:58;4.20;;;1.60;;
47896;SDS011;39629;51.400;5.494;2024-03-23T20:24:59;3.42;;;1.55;;
47896;SDS011;39629;51.400;5.494;2024-03-23T20:30:01;2.70;;;1.17;;
47896;SDS011;39629;51.400;5.494;2024-03-23T20:35:06;2.13;;;1.20;;
47896;SDS011;39629;51.400;5.494;2024-03-23T20:40:08;2.45;;;1.00;;
47896;SDS011;39629;51.400;5.494;2024-03-23T20:45:11;2.70;;;1.10;;
47896;SDS011;39629;51.400;5.494;2024-03-23T20:50:16;1.73;;;1.00;;
47896;SDS011;39629;51.400;5.494;2024-03-23T20:55:18;2.38;;;1.20;;
47896;SDS011;39629;51.400;5.494;2024-03-23T21:00:19;4.63;;;1.10;;
47896;SDS011;39629;51.400;5.494;2024-03-23T21:05:23;2.08;;;1.00;;
47896;SDS011;39629;51.400;5.494;2024-03-23T21:10:24;2.08;;;0.90;;
47896;SDS011;39629;51.400;5.494;2024-03-23T21:15:27;1.88;;;0.90;;
47896;SDS011;39629;51.400;5.494;2024-03-23T21:20:30;2.35;;;0.95;;
47896;SDS011;39629;51.400;5.494;2024-03-23T21:25:32;3.03;;;1.02;;
47896;SDS011;39629;51.400;5.494;2024-03-23T21:30:35;1.88;;;0.90;;
47896;SDS011;39629;51.400;5.494;2024-03-23T21:35:38;4.57;;;1.23;;
47896;SDS011;39629;51.400;5.494;2024-03-23T21:40:39;4.50;;;1.25;;
47896;SDS011;39629;51.400;5.494;2024-03-23T21:45:51;2.72;;;1.10;;
47896;SDS011;39629;51.400;5.494;2024-03-23T21:50:58;2.90;;;1.23;;
47896;SDS011;39629;51.400;5.494;2024-03-23T21:56:00;5.55;;;1.23;;
47896;SDS011;39629;51.400;5.494;2024-03-23T22:01:03;1.95;;;1.20;;
47896;SDS011;39629;51.400;5.494;2024-03-23T22:06:07;3.30;;;1.15;;
47896;SDS011;39629;51.400;5.494;2024-03-23T22:11:09;4.70;;;1.20;;
47896;SDS011;39629;51.400;5.494;2024-03-23T22:16:10;3.83;;;1.20;;
47896;SDS011;39629;51.400;5.494;2024-03-23T22:21:13;4.22;;;1.25;;
47896;SDS011;39629;51.400;5.494;2024-03-23T22:26:15;3.55;;;1.75;;
47896;SDS011;39629;51.400;5.494;2024-03-23T22:31:18;6.18;;;1.63;;
47896;SDS011;39629;51.400;5.494;2024-03-23T22:36:21;5.30;;;2.10;;
47896;SDS011;39629;51.400;5.494;2024-03-23T22:41:22;3.83;;;1.50;;
47896;SDS011;39629;51.400;5.494;2024-03-23T22:46:24;5.85;;;1.50;;
47896;SDS011;39629;51.400;5.494;2024-03-23T22:51:27;4.32;;;1.58;;
47896;SDS011;39629;51.400;5.494;2024-03-23T22:56:29;2.67;;;1.27;;
47896;SDS011;39629;51.400;5.494;2024-03-23T23:01:31;4.45;;;1.85;;
47896;SDS011;39629;51.400;5.494;2024-03-23T23:06:34;3.47;;;1.65;;
47896;SDS011;39629;51.400;5.494;2024-03-23T23:11:37;5.80;;;2.08;;
47896;SDS011;39629;51.400;5.494;2024-03-23T23:16:39;6.65;;;1.67;;
47896;SDS011;39629;51.400;5.494;2024-03-23T23:21:42;3.90;;;1.73;;
47896;SDS011;39629;51.400;5.494;2024-03-23T23:26:44;4.43;;;1.60;;
47896;SDS011;39629;51.400;5.494;2024-03-23T23:31:46;8.13;;;1.95;;
47896;SDS011;39629;51.400;5.494;2024-03-23T23:36:50;5.25;;;1.60;;
47896;SDS011;39629;51.400;5.494;2024-03-23T23:41:52;4.57;;;1.45;;
47896;SDS011;39629;51.400;5.494;2024-03-23T23:46:54;5.00;;;2.00;;
47896;SDS011;39629;51.400;5.494;2024-03-23T23:51:57;5.35;;;1.67;;
47896;SDS011;39629;51.400;5.494;2024-03-23T23:56:58;5.45;;;1.40;;
